createdAt,value
2019-02-17T00:02:12.274Z,8.89
2019-02-17T00:04:36.687Z,8.96
2019-02-17T00:07:01.119Z,8.96
2019-02-17T00:09:25.524Z,8.49
2019-02-17T00:11:49.977Z,8.64
2019-02-17T00:14:14.457Z,8.88
2019-02-17T00:16:38.976Z,8.83
2019-02-17T00:19:03.394Z,8.55
2019-02-17T00:21:27.833Z,8.69
2019-02-17T00:23:52.240Z,8.44
2019-02-17T00:26:16.690Z,8.51
2019-02-17T00:28:41.113Z,8.16
2019-02-17T00:31:05.677Z,8.50
2019-02-17T00:33:30.127Z,8.68
2019-02-17T00:35:54.538Z,8.53
2019-02-17T00:38:18.991Z,8.42
2019-02-17T00:40:43.571Z,8.58
2019-02-17T00:43:08.011Z,8.40
2019-02-17T00:45:32.494Z,8.62
2019-02-17T00:47:56.903Z,8.44
2019-02-17T00:50:21.342Z,8.43
2019-02-17T00:52:45.759Z,8.58
2019-02-17T00:55:10.334Z,8.25
2019-02-17T00:57:34.752Z,7.79
2019-02-17T00:59:59.193Z,7.71
2019-02-17T01:02:23.606Z,7.92
2019-02-17T01:04:48.108Z,7.96
2019-02-17T01:07:12.524Z,8.09
2019-02-17T01:09:36.956Z,8.37
2019-02-17T01:12:01.451Z,8.09
2019-02-17T01:14:25.984Z,8.32
2019-02-17T01:16:50.398Z,8.26
2019-02-17T01:19:14.817Z,8.33
2019-02-17T01:21:39.266Z,8.29
2019-02-17T01:24:03.676Z,8.36
2019-02-17T01:26:28.142Z,8.36
2019-02-17T01:28:52.552Z,8.30
2019-02-17T01:31:16.987Z,8.32
2019-02-17T01:33:41.399Z,8.42
2019-02-17T01:36:05.985Z,8.50
2019-02-17T01:38:30.413Z,8.43
2019-02-17T01:40:54.830Z,8.39
2019-02-17T01:43:19.337Z,8.40
2019-02-17T01:45:43.751Z,8.37
2019-02-17T01:48:08.183Z,8.19
2019-02-17T01:50:32.592Z,8.11
2019-02-17T01:52:57.030Z,8.06
2019-02-17T01:55:22.024Z,8.11
2019-02-17T01:57:46.457Z,7.99
2019-02-17T02:00:13.890Z,8.00
2019-02-17T02:02:38.344Z,8.00
2019-02-17T02:05:02.758Z,7.50
2019-02-17T02:07:27.274Z,7.80
2019-02-17T02:09:51.694Z,7.94
2019-02-17T02:12:16.219Z,7.81
2019-02-17T02:14:40.777Z,7.71
2019-02-17T02:17:05.265Z,7.69
2019-02-17T02:19:29.692Z,7.65
2019-02-17T02:21:54.100Z,7.88
2019-02-17T02:24:18.542Z,7.90
2019-02-17T02:26:42.960Z,7.89
2019-02-17T02:29:07.401Z,7.81
2019-02-17T02:31:31.813Z,7.74
2019-02-17T02:33:56.257Z,7.82
2019-02-17T02:36:20.679Z,7.68
2019-02-17T02:38:45.093Z,7.92
2019-02-17T02:41:09.524Z,7.92
2019-02-17T02:43:33.935Z,7.87
2019-02-17T02:45:58.370Z,7.86
2019-02-17T02:48:22.854Z,7.80
2019-02-17T02:50:47.273Z,7.58
2019-02-17T02:53:11.686Z,7.50
2019-02-17T02:55:36.116Z,7.38
2019-02-17T02:58:00.553Z,7.57
2019-02-17T03:00:25.025Z,7.47
2019-02-17T03:02:49.467Z,7.43
2019-02-17T03:05:13.961Z,7.56
2019-02-17T03:07:38.469Z,7.64
2019-02-17T03:10:02.951Z,7.63
2019-02-17T03:12:27.365Z,7.63
2019-02-17T03:14:51.780Z,7.55
2019-02-17T03:17:16.237Z,7.57
2019-02-17T03:19:40.640Z,7.42
2019-02-17T03:22:05.147Z,7.33
2019-02-17T03:24:29.558Z,7.47
2019-02-17T03:26:54.001Z,7.31
2019-02-17T03:29:18.407Z,7.43
2019-02-17T03:31:42.821Z,7.33
2019-02-17T03:34:07.254Z,7.36
2019-02-17T03:36:31.663Z,7.29
2019-02-17T03:38:56.108Z,7.23
2019-02-17T03:41:20.519Z,7.16
2019-02-17T03:43:44.961Z,7.19
2019-02-17T03:46:09.377Z,7.04
2019-02-17T03:48:33.809Z,7.13
2019-02-17T03:50:58.224Z,7.24
2019-02-17T03:53:22.659Z,7.03
2019-02-17T03:55:47.076Z,6.96
2019-02-17T03:58:11.570Z,6.88
2019-02-17T04:00:36.000Z,7.13
2019-02-17T04:03:00.483Z,7.13
2019-02-17T04:05:24.917Z,7.08
2019-02-17T04:07:49.315Z,7.03
2019-02-17T04:10:13.938Z,7.06
2019-02-17T04:12:38.335Z,7.10
2019-02-17T04:15:02.785Z,7.12
2019-02-17T04:17:27.273Z,7.18
2019-02-17T04:19:51.722Z,7.07
2019-02-17T04:22:16.150Z,7.03
2019-02-17T04:24:40.628Z,6.99
2019-02-17T04:27:05.147Z,6.69
2019-02-17T04:29:29.558Z,6.82
2019-02-17T04:31:54.001Z,6.78
2019-02-17T04:34:18.414Z,6.77
2019-02-17T04:36:42.855Z,6.59
2019-02-17T04:39:07.256Z,6.65
2019-02-17T04:41:31.692Z,6.67
2019-02-17T04:43:56.103Z,6.69
2019-02-17T04:46:20.517Z,6.65
2019-02-17T04:48:44.939Z,6.74
2019-02-17T04:51:09.419Z,6.71
2019-02-17T04:53:33.846Z,6.79
2019-02-17T04:55:58.259Z,6.44
2019-02-17T04:58:22.700Z,6.56
2019-02-17T05:00:47.115Z,6.59
2019-02-17T05:03:11.559Z,6.52
2019-02-17T05:05:35.955Z,6.44
2019-02-17T05:08:00.387Z,6.53
2019-02-17T05:10:24.793Z,6.49
2019-02-17T05:12:49.201Z,6.30
2019-02-17T05:15:13.707Z,6.25
2019-02-17T05:17:38.120Z,6.23
2019-02-17T05:20:02.557Z,6.20
2019-02-17T05:22:26.967Z,6.31
2019-02-17T05:24:51.379Z,6.35
2019-02-17T05:27:15.802Z,6.19
2019-02-17T05:29:40.218Z,6.26
2019-02-17T05:32:04.794Z,6.23
2019-02-17T05:34:29.207Z,6.36
2019-02-17T05:36:53.648Z,6.22
2019-02-17T05:39:18.055Z,6.10
2019-02-17T05:41:42.491Z,5.80
2019-02-17T05:44:06.912Z,5.98
2019-02-17T05:46:31.342Z,5.85
2019-02-17T05:48:55.753Z,6.00
2019-02-17T05:51:20.204Z,5.97
2019-02-17T05:53:44.599Z,6.00
2019-02-17T05:56:09.000Z,5.94
2019-02-17T05:58:33.445Z,5.97
2019-02-17T06:01:03.694Z,5.87
2019-02-17T06:03:23.977Z,5.73
2019-02-17T06:05:48.380Z,5.71
2019-02-17T06:08:12.814Z,5.76
2019-02-17T06:10:37.248Z,5.70
2019-02-17T06:13:01.677Z,5.75
2019-02-17T06:15:26.086Z,5.74
2019-02-17T06:17:50.515Z,5.77
2019-02-17T06:20:14.918Z,5.79
2019-02-17T06:22:39.354Z,5.59
2019-02-17T06:25:03.831Z,5.60
2019-02-17T06:27:28.235Z,5.60
2019-02-17T06:29:52.682Z,5.46
2019-02-17T06:32:17.092Z,5.30
2019-02-17T06:34:41.520Z,5.29
2019-02-17T06:37:05.931Z,5.29
2019-02-17T06:39:30.372Z,5.34
2019-02-17T06:41:54.782Z,5.37
2019-02-17T06:44:19.226Z,5.34
2019-02-17T06:46:45.279Z,5.50
2019-02-17T06:49:09.694Z,5.56
2019-02-17T06:51:34.119Z,5.50
2019-02-17T06:53:58.532Z,5.41
2019-02-17T06:56:27.545Z,5.56
2019-02-17T06:58:51.950Z,5.50
2019-02-17T07:01:24.420Z,5.38
2019-02-17T07:03:42.558Z,5.23
2019-02-17T07:06:11.421Z,5.46
2019-02-17T07:08:35.833Z,5.54
2019-02-17T07:11:00.277Z,5.57
2019-02-17T07:13:24.687Z,5.31
2019-02-17T07:15:49.141Z,5.41
2019-02-17T07:18:13.576Z,5.34
2019-02-17T07:20:37.978Z,5.51
2019-02-17T07:23:02.424Z,5.49
2019-02-17T07:25:29.945Z,5.70
2019-02-17T07:27:52.975Z,5.77
2019-02-17T07:30:17.389Z,5.85
2019-02-17T07:32:41.830Z,5.78
2019-02-17T07:35:07.179Z,5.68
2019-02-17T07:37:33.726Z,5.94
2019-02-17T07:39:57.732Z,5.88
2019-02-17T07:42:22.171Z,5.97
2019-02-17T07:44:46.587Z,5.42
2019-02-17T07:47:11.018Z,5.57
2019-02-17T07:49:35.429Z,5.43
2019-02-17T07:51:59.836Z,5.79
2019-02-17T07:54:24.280Z,5.98
2019-02-17T07:56:48.707Z,6.02
2019-02-17T07:59:13.117Z,6.11
2019-02-17T08:01:45.100Z,6.15
2019-02-17T08:04:03.665Z,6.14
2019-02-17T08:06:28.076Z,6.34
2019-02-17T08:08:52.518Z,6.38
2019-02-17T08:11:16.926Z,6.60
2019-02-17T08:13:41.358Z,6.64
2019-02-17T08:16:05.777Z,6.75
2019-02-17T08:18:30.195Z,6.82
2019-02-17T08:20:54.668Z,6.75
2019-02-17T08:23:19.040Z,6.91
2019-02-17T08:25:43.490Z,7.03
2019-02-17T08:28:07.913Z,7.13
2019-02-17T08:30:32.346Z,7.10
2019-02-17T08:32:56.750Z,7.20
2019-02-17T08:35:21.204Z,7.43
2019-02-17T08:37:45.656Z,7.44
2019-02-17T08:40:10.902Z,7.61
2019-02-17T08:42:35.379Z,7.61
2019-02-17T08:44:59.859Z,7.89
2019-02-17T08:47:24.373Z,8.03
2019-02-17T08:49:48.757Z,8.16
2019-02-17T08:52:13.199Z,8.23
2019-02-17T08:54:37.616Z,8.22
2019-02-17T08:57:02.082Z,8.35
2019-02-17T08:59:26.480Z,8.39
2019-02-17T09:01:50.957Z,8.53
2019-02-17T09:04:15.438Z,8.69
2019-02-17T09:06:39.887Z,8.80
2019-02-17T09:09:05.718Z,8.86
2019-02-17T09:11:30.152Z,9.01
2019-02-17T09:13:54.555Z,9.31
2019-02-17T09:16:18.996Z,9.26
2019-02-17T09:18:43.435Z,9.31
2019-02-17T09:21:07.852Z,9.46
2019-02-17T09:23:32.309Z,9.68
2019-02-17T09:25:56.722Z,9.84
2019-02-17T09:28:21.242Z,9.96
2019-02-17T09:30:45.659Z,10.08
2019-02-17T09:33:10.091Z,10.12
2019-02-17T09:35:34.536Z,10.21
2019-02-17T09:37:58.979Z,10.59
2019-02-17T09:40:23.470Z,10.74
2019-02-17T09:42:47.960Z,10.79
2019-02-17T09:45:16.339Z,10.96
2019-02-17T09:47:40.747Z,10.99
2019-02-17T09:50:09.401Z,11.31
2019-02-17T09:52:33.815Z,11.44
2019-02-17T09:54:58.287Z,11.60
2019-02-17T09:57:22.743Z,11.65
2019-02-17T09:59:47.154Z,11.68
2019-02-17T10:02:11.625Z,11.93
2019-02-17T10:04:36.047Z,12.17
2019-02-17T10:07:00.463Z,12.54
2019-02-17T10:09:24.906Z,12.97
2019-02-17T10:11:49.343Z,13.12
2019-02-17T10:14:13.816Z,13.24
2019-02-17T10:16:38.311Z,13.34
2019-02-17T10:19:02.802Z,13.64
2019-02-17T10:21:27.243Z,13.92
2019-02-17T10:23:51.662Z,13.92
2019-02-17T10:26:16.141Z,14.06
2019-02-17T10:28:42.532Z,14.17
2019-02-17T10:31:06.777Z,14.42
2019-02-17T10:33:31.200Z,14.71
2019-02-17T10:35:55.664Z,14.46
2019-02-17T10:38:20.092Z,14.79
2019-02-17T10:40:44.546Z,15.07
2019-02-17T10:43:08.972Z,15.30
2019-02-17T10:45:33.479Z,15.34
2019-02-17T10:47:57.907Z,15.60
2019-02-17T10:50:22.371Z,15.83
2019-02-17T10:52:47.030Z,16.07
2019-02-17T10:55:12.927Z,16.14
2019-02-17T10:57:37.440Z,16.31
2019-02-17T11:00:01.897Z,16.50
2019-02-17T11:02:27.888Z,16.15
2019-02-17T11:04:52.377Z,16.55
2019-02-17T11:07:16.909Z,16.84
2019-02-17T11:09:41.387Z,17.26
2019-02-17T11:12:05.915Z,17.46
2019-02-17T11:14:30.326Z,17.67
2019-02-17T11:16:54.764Z,17.99
2019-02-17T11:19:19.257Z,18.07
2019-02-17T11:21:43.710Z,17.20
2019-02-17T11:24:08.273Z,18.23
2019-02-17T11:26:32.724Z,18.91
2019-02-17T11:28:57.252Z,19.36
2019-02-17T11:31:21.675Z,20.07
2019-02-17T11:33:46.190Z,21.13
2019-02-17T11:36:10.764Z,22.44
2019-02-17T11:38:35.212Z,23.56
2019-02-17T11:40:59.633Z,23.88
2019-02-17T11:43:24.091Z,24.45
2019-02-17T11:45:48.647Z,26.35
2019-02-17T11:48:13.171Z,26.87
2019-02-17T11:50:37.601Z,28.40
2019-02-17T11:53:02.031Z,28.41
2019-02-17T11:55:26.469Z,29.15
2019-02-17T11:57:50.974Z,29.82
2019-02-17T12:00:22.263Z,29.57
2019-02-17T12:02:46.789Z,30.19
2019-02-17T12:05:11.756Z,31.03
2019-02-17T12:07:36.168Z,31.64
2019-02-17T12:10:00.617Z,32.32
2019-02-17T12:12:25.037Z,31.60
2019-02-17T12:14:49.496Z,32.39
2019-02-17T12:17:13.900Z,33.20
2019-02-17T12:19:38.359Z,33.56
2019-02-17T12:22:04.439Z,32.92
2019-02-17T12:24:30.549Z,33.32
2019-02-17T12:27:11.740Z,34.20
2019-02-17T12:29:38.479Z,34.61
2019-02-17T12:32:03.021Z,34.26
2019-02-17T12:34:27.459Z,34.59
2019-02-17T12:36:51.915Z,34.59
2019-02-17T12:39:16.342Z,33.50
2019-02-17T12:41:40.782Z,35.21
2019-02-17T12:44:05.211Z,34.87
2019-02-17T12:46:29.652Z,36.30
2019-02-17T12:48:54.065Z,36.37
2019-02-17T12:51:18.504Z,34.26
2019-02-17T12:53:42.936Z,35.90
2019-02-17T12:56:07.392Z,36.82
2019-02-17T12:58:31.806Z,37.46
2019-02-17T13:00:56.259Z,37.09
2019-02-17T13:03:28.234Z,36.97
2019-02-17T13:05:47.031Z,37.47
2019-02-17T13:08:11.491Z,37.09
2019-02-17T13:10:35.942Z,37.21
2019-02-17T13:13:00.365Z,37.94
2019-02-17T13:15:24.784Z,37.56
2019-02-17T13:17:49.312Z,37.82
2019-02-17T13:20:15.271Z,37.13
2019-02-17T13:22:39.804Z,37.60
2019-02-17T13:25:05.069Z,37.48
2019-02-17T13:27:29.532Z,37.98
2019-02-17T13:29:53.954Z,37.83
2019-02-17T13:32:18.499Z,38.52
2019-02-17T13:34:42.931Z,38.41
2019-02-17T13:37:07.380Z,38.12
2019-02-17T13:39:31.820Z,38.21
2019-02-17T13:41:56.353Z,37.80
2019-02-17T13:44:20.779Z,37.89
2019-02-17T13:46:45.242Z,38.24
2019-02-17T13:49:09.679Z,38.00
2019-02-17T13:51:34.161Z,37.23
2019-02-17T13:53:58.774Z,36.94
2019-02-17T13:56:23.269Z,36.51
2019-02-17T13:58:47.739Z,36.22
2019-02-17T14:01:12.167Z,36.62
2019-02-17T14:03:36.623Z,36.86
2019-02-17T14:06:01.019Z,36.54
2019-02-17T14:08:25.471Z,36.83
2019-02-17T14:10:49.901Z,36.38
2019-02-17T14:13:14.355Z,36.43
2019-02-17T14:15:38.769Z,36.45
2019-02-17T14:18:03.188Z,35.41
2019-02-17T14:20:27.631Z,35.42
2019-02-17T14:22:52.056Z,36.30
2019-02-17T14:25:16.522Z,35.95
2019-02-17T14:27:41.015Z,33.66
2019-02-17T14:30:08.838Z,35.12
2019-02-17T14:32:33.256Z,35.55
2019-02-17T14:34:57.679Z,36.22
2019-02-17T14:37:22.095Z,35.06
2019-02-17T14:39:46.633Z,34.44
2019-02-17T14:42:11.053Z,33.82
2019-02-17T14:44:35.513Z,33.72
2019-02-17T14:46:59.915Z,33.33
2019-02-17T14:49:24.409Z,32.14
2019-02-17T14:51:48.853Z,33.85
2019-02-17T14:54:13.363Z,34.19
2019-02-17T14:56:37.866Z,33.19
2019-02-17T14:59:02.589Z,32.70
2019-02-17T15:01:27.087Z,31.30
2019-02-17T15:03:51.511Z,30.61
2019-02-17T15:06:15.947Z,29.91
2019-02-17T15:08:40.359Z,29.61
2019-02-17T15:11:04.798Z,29.58
2019-02-17T15:13:29.221Z,28.27
2019-02-17T15:15:53.689Z,27.22
2019-02-17T15:18:18.107Z,28.09
2019-02-17T15:20:42.907Z,27.64
2019-02-17T15:23:07.336Z,26.61
2019-02-17T15:25:31.925Z,26.17
2019-02-17T15:27:56.356Z,25.70
2019-02-17T15:30:20.869Z,25.71
2019-02-17T15:32:45.284Z,25.52
2019-02-17T15:35:09.956Z,24.85
2019-02-17T15:37:34.390Z,24.41
2019-02-17T15:39:58.807Z,24.49
2019-02-17T15:42:23.346Z,23.69
2019-02-17T15:44:48.003Z,23.35
2019-02-17T15:47:12.399Z,23.12
2019-02-17T15:49:36.808Z,22.79
2019-02-17T15:52:01.268Z,22.51
2019-02-17T15:54:25.967Z,22.28
2019-02-17T15:56:50.405Z,21.95
2019-02-17T15:59:14.900Z,21.71
2019-02-17T16:01:39.329Z,21.73
2019-02-17T16:04:03.782Z,21.53
2019-02-17T16:06:28.206Z,21.27
2019-02-17T16:08:52.662Z,20.81
2019-02-17T16:11:17.085Z,20.74
2019-02-17T16:13:41.536Z,20.40
2019-02-17T16:16:06.120Z,20.33
2019-02-17T16:18:30.572Z,20.19
2019-02-17T16:20:55.016Z,20.01
2019-02-17T16:23:19.504Z,19.76
2019-02-17T16:25:44.210Z,19.69
2019-02-17T16:28:09.030Z,19.66
2019-02-17T16:30:33.482Z,19.63
2019-02-17T16:32:57.914Z,19.60
2019-02-17T16:35:22.354Z,19.45
2019-02-17T16:37:46.856Z,19.05
2019-02-17T16:40:13.894Z,19.11
2019-02-17T16:42:38.311Z,18.97
2019-02-17T16:45:02.870Z,18.90
2019-02-17T16:47:28.029Z,18.71
2019-02-17T16:49:52.487Z,18.50
2019-02-17T16:52:16.917Z,18.40
2019-02-17T16:54:41.358Z,18.27
2019-02-17T16:57:05.854Z,18.06
2019-02-17T16:59:30.321Z,17.93
2019-02-17T17:01:54.752Z,17.96
2019-02-17T17:04:19.245Z,17.70
2019-02-17T17:06:43.722Z,17.80
2019-02-17T17:09:08.880Z,17.81
2019-02-17T17:11:33.355Z,17.67
2019-02-17T17:13:57.789Z,17.64
2019-02-17T17:16:22.394Z,17.44
2019-02-17T17:18:47.036Z,17.50
2019-02-17T17:21:11.493Z,17.45
2019-02-17T17:23:35.920Z,17.29
2019-02-17T17:26:00.466Z,17.19
2019-02-17T17:28:25.907Z,17.21
2019-02-17T17:30:50.441Z,17.07
2019-02-17T17:33:14.884Z,17.10
2019-02-17T17:35:39.387Z,17.02
2019-02-17T17:38:03.929Z,16.89
2019-02-17T17:40:28.437Z,16.75
2019-02-17T17:42:52.906Z,16.81
2019-02-17T17:45:22.307Z,16.57
2019-02-17T17:47:46.764Z,16.67
2019-02-17T17:50:15.424Z,16.35
2019-02-17T17:52:39.940Z,16.43
2019-02-17T17:55:05.206Z,16.35
2019-02-17T17:57:29.673Z,16.33
2019-02-17T17:59:54.117Z,16.37
2019-02-17T18:02:18.750Z,16.24
2019-02-17T18:04:43.310Z,16.16
2019-02-17T18:07:07.772Z,16.17
2019-02-17T18:09:32.202Z,16.04
2019-02-17T18:11:56.753Z,15.94
2019-02-17T18:14:21.270Z,15.92
2019-02-17T18:16:45.699Z,15.78
2019-02-17T18:19:10.172Z,15.75
2019-02-17T18:21:34.598Z,15.63
2019-02-17T18:23:59.080Z,15.54
2019-02-17T18:26:23.599Z,15.45
2019-02-17T18:28:48.050Z,15.44
2019-02-17T18:31:12.616Z,15.38
2019-02-17T18:33:37.076Z,15.40
2019-02-17T18:36:01.644Z,15.29
2019-02-17T18:38:26.095Z,15.15
2019-02-17T18:40:50.516Z,15.28
2019-02-17T18:43:15.041Z,15.21
2019-02-17T18:45:39.475Z,15.15
2019-02-17T18:48:04.059Z,15.03
2019-02-17T18:50:28.626Z,14.86
2019-02-17T18:52:53.058Z,14.93
2019-02-17T18:55:17.585Z,14.93
2019-02-17T18:57:49.485Z,14.75
2019-02-17T19:00:25.714Z,14.70
2019-02-17T19:02:50.206Z,14.88
2019-02-17T19:05:14.773Z,14.93
2019-02-17T19:07:39.182Z,14.73
2019-02-17T19:10:05.182Z,14.62
2019-02-17T19:12:29.607Z,14.67
2019-02-17T19:14:55.488Z,14.67
2019-02-17T19:17:19.993Z,14.61
2019-02-17T19:19:44.513Z,14.00
2019-02-17T19:22:08.942Z,14.48
2019-02-17T19:24:33.425Z,14.63
2019-02-17T19:26:57.855Z,14.48
2019-02-17T19:29:22.338Z,14.17
2019-02-17T19:31:46.851Z,14.17
2019-02-17T19:34:11.268Z,14.01
2019-02-17T19:36:35.797Z,14.12
2019-02-17T19:39:00.223Z,13.89
2019-02-17T19:41:24.766Z,13.60
2019-02-17T19:43:49.261Z,13.54
2019-02-17T19:46:13.787Z,13.63
2019-02-17T19:48:38.279Z,13.49
2019-02-17T19:51:02.746Z,13.34
2019-02-17T19:53:27.248Z,13.28
2019-02-17T19:55:51.677Z,13.42
2019-02-17T19:58:16.104Z,13.08
2019-02-17T20:00:40.569Z,12.98
2019-02-17T20:03:09.911Z,12.77
2019-02-17T20:05:36.053Z,12.66
2019-02-17T20:08:00.546Z,12.34
2019-02-17T20:10:25.004Z,12.64
2019-02-17T20:12:49.421Z,12.62
2019-02-17T20:15:13.910Z,12.63
2019-02-17T20:17:38.428Z,12.31
2019-02-17T20:20:02.926Z,12.36
2019-02-17T20:22:27.380Z,12.39
2019-02-17T20:24:51.815Z,12.24
2019-02-17T20:27:16.257Z,12.13
2019-02-17T20:29:40.670Z,12.15
2019-02-17T20:32:05.189Z,12.60
2019-02-17T20:34:29.610Z,12.39
2019-02-17T20:36:54.117Z,12.62
2019-02-17T20:39:18.758Z,12.58
2019-02-17T20:41:43.192Z,12.60
2019-02-17T20:44:07.808Z,12.64
2019-02-17T20:46:32.287Z,12.58
2019-02-17T20:48:56.811Z,12.62
2019-02-17T20:51:21.314Z,12.65
2019-02-17T20:53:45.851Z,12.58
2019-02-17T20:56:10.352Z,12.53
2019-02-17T20:58:34.786Z,12.74
2019-02-17T21:00:59.316Z,12.69
2019-02-17T21:03:23.839Z,12.61
2019-02-17T21:05:48.263Z,12.64
2019-02-17T21:08:12.849Z,12.61
2019-02-17T21:10:37.345Z,12.63
2019-02-17T21:13:01.945Z,12.58
2019-02-17T21:15:26.831Z,12.62
2019-02-17T21:17:51.536Z,12.63
2019-02-17T21:20:17.774Z,12.65
2019-02-17T21:22:42.447Z,12.52
2019-02-17T21:25:12.480Z,12.47
2019-02-17T21:27:37.161Z,12.56
2019-02-17T21:30:01.777Z,12.46
2019-02-17T21:32:27.734Z,12.37
2019-02-17T21:34:52.240Z,12.35
2019-02-17T21:37:16.801Z,12.36
2019-02-17T21:39:41.375Z,12.32
2019-02-17T21:42:05.864Z,12.04
2019-02-17T21:44:30.677Z,12.12
2019-02-17T21:46:55.261Z,12.20
2019-02-17T21:49:20.260Z,11.90
2019-02-17T21:51:44.898Z,11.97
2019-02-17T21:54:09.437Z,11.97
2019-02-17T21:56:33.967Z,11.88
2019-02-17T21:58:58.630Z,11.67
2019-02-17T22:01:23.282Z,11.68
2019-02-17T22:03:47.955Z,11.72
2019-02-17T22:06:12.712Z,11.30
2019-02-17T22:08:37.195Z,11.47
2019-02-17T22:11:01.754Z,11.55
2019-02-17T22:13:26.256Z,11.17
2019-02-17T22:15:50.904Z,11.26
2019-02-17T22:18:15.456Z,11.04
2019-02-17T22:20:39.968Z,11.01
2019-02-17T22:23:04.440Z,10.95
2019-02-17T22:25:28.865Z,10.71
2019-02-17T22:27:53.311Z,10.38
2019-02-17T22:30:17.810Z,10.24
2019-02-17T22:32:42.251Z,10.37
2019-02-17T22:35:06.922Z,10.35
2019-02-17T22:37:31.360Z,10.32
2019-02-17T22:39:55.754Z,9.92
2019-02-17T22:42:20.262Z,9.37
2019-02-17T22:44:44.680Z,9.61
2019-02-17T22:47:09.095Z,9.69
2019-02-17T22:49:33.520Z,9.52
2019-02-17T22:51:58.000Z,9.88
2019-02-17T22:54:22.441Z,9.95
2019-02-17T22:56:46.861Z,9.85
2019-02-17T22:59:11.296Z,9.93
2019-02-17T23:01:35.780Z,10.09
2019-02-17T23:04:00.289Z,10.07
2019-02-17T23:06:24.774Z,9.82
2019-02-17T23:08:49.301Z,9.91
2019-02-17T23:11:14.000Z,10.13
2019-02-17T23:13:38.463Z,10.12
2019-02-17T23:16:02.844Z,10.20
2019-02-17T23:18:27.279Z,10.00
2019-02-17T23:20:51.684Z,10.02
2019-02-17T23:23:16.099Z,10.05
2019-02-17T23:25:40.504Z,10.22
2019-02-17T23:28:04.909Z,10.23
2019-02-17T23:30:29.390Z,10.05
2019-02-17T23:32:53.796Z,9.98
2019-02-17T23:35:18.210Z,10.03
2019-02-17T23:37:42.609Z,9.97
2019-02-17T23:40:11.505Z,9.78
2019-02-17T23:42:35.985Z,9.66
2019-02-17T23:45:00.417Z,9.85
2019-02-17T23:47:24.840Z,9.78
2019-02-17T23:49:49.261Z,9.95
2019-02-17T23:52:13.665Z,9.92
2019-02-17T23:54:38.094Z,9.85
2019-02-17T23:57:02.497Z,9.88
2019-02-17T23:59:26.902Z,9.87
